aviador You're here:

OAIX Decoded Metar

in
Report Time2018-07-16 07:58:00
UTC Time2018-07-16 08:28:37
Flight Rules vfr VFR
Wind070° at 04 kt
W.Decomp.*RWY 03: 3.1 kt HW 2.6 kt RCW
W.Rank070° ranks 24
Current wind is below 070° avg. (5.0)
Visibility8000 m
Phenomena:Haze
Clouds:Few 190 Hf
Expected CloudBase > 9,200 ft AGL from Temp-Dew spread
CeilingNone
Temp35°C
Dew Point12°C (25% RH)
Heat Index33.7°C
AAT34.2°C
QNH1006 hPa
Raw Report
METAR OAIX 160758Z 07004KT 8000 HZ FEW190 35/12 A2971 RMK AO2A SLP946
T03470115 $=

Extra information for OAIX:More info

Social comments